PWSweather.com
Personal Weather Stations
Station Observations
KNCWESTF2
Frans Rd, Westfield, NC 27053

Frans RdWestfield, NC 27053

Lat: 36.49164963, Lon: -80.40155029

Elevation: 1106

Station Type: La Crosse WS 2810

Latest ConditionsUpdated 4:00:54 AM EDT Sunday, Apr 23, 2017
Currently Today's Max Today's Min Today's Average
Temperature 48.4°F9.1°C 52.9°F11.6°C 48.4°F9.1°C 50.4°F10.2°C
Dew Point -5537.2°C 0.0°F-17.8°C 0.0°F-17.8°C 0.0°F-17.8°C
Winds 4.4 mph E7.1 kmh E 10.7 mph E17.2 kmh E - 5.1 mph 8.2 kmh
Wind Gusts 8.5 mph13.7 kmh 13.2 mph21.2 kmh - -
Humidity - 0% 0% 0%
Pressure 30.00 in1015.9 mb 30.03 in1016.9 mb 29.97 in1014.9 mb -
Precipitation - 0.13 in3.3 mm - -
Hour Temp Dew Point Humidity Winds Wind Gusts Pressure Precip Precip Rate Daily Precip Total
04:00 AM 48.6°F9.2°C -5537.2°C - 3.8 mph ENE6.1 kmh ENE 8.5 mph13.7 kmh 30.00 in1015.9 mb 0.00 in0.0 mm 0.00 in0.0 mm 0.13 in3.3 mm
03:59 AM 48.6°F9.2°C -5537.2°C - 5.6 mph E9.0 kmh E 8.5 mph13.7 kmh 30.00 in1015.9 mb 0.00 in0.0 mm 0.00 in0.0 mm 0.13 in3.3 mm
03:58 AM 48.6°F9.2°C -5537.2°C - 7.2 mph ENE11.6 kmh ENE 8.5 mph13.7 kmh 30.00 in1015.9 mb 0.00 in0.0 mm 0.00 in0.0 mm 0.13 in3.3 mm
03:57 AM 48.6°F9.2°C -5537.2°C - 7.9 mph NE12.7 kmh NE 8.5 mph13.7 kmh 30.00 in1015.9 mb 0.00 in0.0 mm 0.00 in0.0 mm 0.13 in3.3 mm
03:56 AM 48.6°F9.2°C -5537.2°C - 6.1 mph E9.8 kmh E 8.5 mph13.7 kmh 30.00 in1015.9 mb 0.00 in0.0 mm 0.00 in0.0 mm 0.13 in3.3 mm
03:55 AM 48.6°F9.2°C -5537.2°C - 3.7 mph ENE6.0 kmh ENE 7.2 mph11.6 kmh 30.00 in1015.9 mb 0.00 in0.0 mm 0.00 in0.0 mm 0.13 in3.3 mm
03:54 AM 48.6°F9.2°C -5537.2°C - 3.6 mph NNE5.8 kmh NNE 6.0 mph9.7 kmh 30.01 in1016.3 mb 0.00 in0.0 mm 0.00 in0.0 mm 0.13 in3.3 mm
03:53 AM 48.6°F9.2°C -5537.2°C - 4.2 mph N6.8 kmh N 8.5 mph13.7 kmh 30.00 in1015.9 mb 0.00 in0.0 mm 0.00 in0.0 mm 0.13 in3.3 mm
03:52 AM 48.6°F9.2°C -5537.2°C - 4.5 mph N7.2 kmh N 8.5 mph13.7 kmh 30.00 in1015.9 mb 0.00 in0.0 mm 0.00 in0.0 mm 0.13 in3.3 mm
03:51 AM 48.8°F9.3°C -5537.2°C - 4.5 mph 7.2 kmh 8.5 mph13.7 kmh 30.00 in1015.9 mb 0.00 in0.0 mm 0.00 in0.0 mm 0.13 in3.3 mm
03:50 AM 48.8°F9.3°C -5537.2°C - 4.6 mph N7.4 kmh N 8.9 mph14.3 kmh 30.00 in1015.9 mb 0.00 in0.0 mm 0.00 in0.0 mm 0.13 in3.3 mm
03:49 AM 48.8°F9.3°C -5537.2°C - 5.2 mph NE8.4 kmh NE 8.9 mph14.3 kmh 30.00 in1015.9 mb 0.00 in0.0 mm 0.00 in0.0 mm 0.13 in3.3 mm
03:48 AM 48.8°F9.3°C -5537.2°C - 5.4 mph ENE8.7 kmh ENE 8.9 mph14.3 kmh 30.00 in1015.9 mb 0.01 in0.3 mm 0.00 in0.0 mm 0.13 in3.3 mm
03:47 AM 48.8°F9.3°C -5537.2°C - 5.1 mph E8.2 kmh E 8.9 mph14.3 kmh 29.99 in1015.6 mb 0.01 in0.3 mm 0.00 in0.0 mm 0.13 in3.3 mm
03:46 AM 49.0°F9.4°C -5537.2°C - 5.1 mph E8.2 kmh E 8.9 mph14.3 kmh 30.00 in1015.9 mb 0.01 in0.3 mm 0.00 in0.0 mm 0.13 in3.3 mm
03:45 AM 49.0°F9.4°C -5537.2°C - 6.0 mph E9.7 kmh E 8.9 mph14.3 kmh 30.00 in1015.9 mb 0.01 in0.3 mm 0.00 in0.0 mm 0.13 in3.3 mm
03:44 AM 49.0°F9.4°C -5537.2°C - 5.3 mph E8.5 kmh E 8.9 mph14.3 kmh 30.00 in1015.9 mb 0.01 in0.3 mm 0.00 in0.0 mm 0.13 in3.3 mm
03:43 AM 49.0°F9.4°C -5537.2°C - 4.0 mph E6.4 kmh E 8.9 mph14.3 kmh 30.00 in1015.9 mb 0.01 in0.3 mm 0.00 in0.0 mm 0.13 in3.3 mm
03:42 AM 49.0°F9.4°C -5537.2°C - 6.5 mph ENE10.5 kmh ENE 8.9 mph14.3 kmh 30.00 in1015.9 mb 0.01 in0.3 mm 0.00 in0.0 mm 0.13 in3.3 mm
03:41 AM 49.0°F9.4°C -5537.2°C - 8.1 mph E13.0 kmh E 8.9 mph14.3 kmh 30.00 in1015.9 mb 0.01 in0.3 mm 0.00 in0.0 mm 0.13 in3.3 mm
03:40 AM 49.0°F9.4°C -5537.2°C - 7.0 mph E11.3 kmh E 8.9 mph14.3 kmh 30.00 in1015.9 mb 0.01 in0.3 mm 0.00 in0.0 mm 0.13 in3.3 mm
03:39 AM 49.0°F9.4°C -5537.2°C - 5.6 mph NE9.0 kmh NE 7.8 mph12.6 kmh 30.00 in1015.9 mb 0.01 in0.3 mm 0.00 in0.0 mm 0.13 in3.3 mm
03:38 AM 49.0°F9.4°C -5537.2°C - 5.4 mph NNE8.7 kmh NNE 7.8 mph12.6 kmh 30.00 in1015.9 mb 0.01 in0.3 mm 0.00 in0.0 mm 0.13 in3.3 mm
03:37 AM 49.0°F9.4°C -5537.2°C - 5.4 mph NNE8.7 kmh NNE 7.8 mph12.6 kmh 30.00 in1015.9 mb 0.01 in0.3 mm 0.00 in0.0 mm 0.13 in3.3 mm
03:36 AM 49.0°F9.4°C -5537.2°C - 4.8 mph NNE7.7 kmh NNE 7.8 mph12.6 kmh 30.01 in1016.3 mb 0.01 in0.3 mm 0.00 in0.0 mm 0.13 in3.3 mm
03:35 AM 49.0°F9.4°C -5537.2°C - 4.2 mph NE6.8 kmh NE 7.8 mph12.6 kmh 30.01 in1016.3 mb 0.01 in0.3 mm 0.00 in0.0 mm 0.13 in3.3 mm
03:34 AM 49.0°F9.4°C -5537.2°C - 4.1 mph ENE6.6 kmh ENE 7.8 mph12.6 kmh 30.01 in1016.3 mb 0.01 in0.3 mm 0.00 in0.0 mm 0.13 in3.3 mm
03:33 AM 49.0°F9.4°C -5537.2°C - 4.9 mph E7.9 kmh E 7.8 mph12.6 kmh 30.01 in1016.3 mb 0.01 in0.3 mm 0.00 in0.0 mm 0.13 in3.3 mm
03:32 AM 49.0°F9.4°C -5537.2°C - 5.9 mph E9.5 kmh E 7.8 mph12.6 kmh 30.01 in1016.3 mb 0.01 in0.3 mm 0.00 in0.0 mm 0.13 in3.3 mm
03:31 AM 49.0°F9.4°C -5537.2°C - 3.5 mph E5.6 kmh E 7.8 mph12.6 kmh 30.01 in1016.3 mb 0.01 in0.3 mm 0.00 in0.0 mm 0.13 in3.3 mm
03:30 AM 49.0°F9.4°C -5537.2°C - 1.2 mph SE1.9 kmh SE 6.0 mph9.7 kmh 30.01 in1016.3 mb 0.01 in0.3 mm 0.00 in0.0 mm 0.13 in3.3 mm
03:29 AM 49.0°F9.4°C -5537.2°C - 2.3 mph ESE3.7 kmh ESE 6.0 mph9.7 kmh 30.01 in1016.3 mb 0.01 in0.3 mm 0.00 in0.0 mm 0.13 in3.3 mm
03:28 AM 49.0°F9.4°C -5537.2°C - 2.8 mph E4.5 kmh E 6.0 mph9.7 kmh 30.01 in1016.3 mb 0.01 in0.3 mm 0.00 in0.0 mm 0.13 in3.3 mm
03:27 AM 49.0°F9.4°C -5537.2°C - 3.3 mph ENE5.3 kmh ENE 10.7 mph17.2 kmh 30.00 in1015.9 mb 0.01 in0.3 mm 0.00 in0.0 mm 0.13 in3.3 mm
03:26 AM 49.0°F9.4°C -5537.2°C - 4.3 mph NE6.9 kmh NE 10.7 mph17.2 kmh 30.00 in1015.9 mb 0.01 in0.3 mm 0.00 in0.0 mm 0.13 in3.3 mm
03:25 AM 49.0°F9.4°C -5537.2°C - 5.3 mph ENE8.5 kmh ENE 10.7 mph17.2 kmh 30.00 in1015.9 mb 0.02 in0.5 mm 0.00 in0.0 mm 0.13 in3.3 mm
03:24 AM 49.0°F9.4°C -5537.2°C - 5.4 mph E8.7 kmh E 10.7 mph17.2 kmh 30.00 in1015.9 mb 0.02 in0.5 mm 0.00 in0.0 mm 0.13 in3.3 mm
03:23 AM 49.0°F9.4°C -5537.2°C - 4.2 mph E6.8 kmh E 10.7 mph17.2 kmh 30.00 in1015.9 mb 0.02 in0.5 mm 0.00 in0.0 mm 0.13 in3.3 mm
03:22 AM 49.0°F9.4°C -5537.2°C - 2.7 mph E4.3 kmh E 10.7 mph17.2 kmh 30.00 in1015.9 mb 0.02 in0.5 mm 0.00 in0.0 mm 0.13 in3.3 mm
03:21 AM 49.0°F9.4°C -5537.2°C - 2.9 mph ENE4.7 kmh ENE 10.7 mph17.2 kmh 30.00 in1015.9 mb 0.02 in0.5 mm 0.00 in0.0 mm 0.13 in3.3 mm
03:20 AM 49.0°F9.4°C -5537.2°C - 4.5 mph ENE7.2 kmh ENE 10.7 mph17.2 kmh 30.00 in1015.9 mb 0.02 in0.5 mm 0.00 in0.0 mm 0.13 in3.3 mm
03:19 AM 49.0°F9.4°C -5537.2°C - 6.6 mph E10.6 kmh E 10.7 mph17.2 kmh 30.00 in1015.9 mb 0.02 in0.5 mm 0.00 in0.0 mm 0.13 in3.3 mm
03:18 AM 49.0°F9.4°C -5537.2°C - 7.4 mph ENE11.9 kmh ENE 10.7 mph17.2 kmh 30.00 in1015.9 mb 0.02 in0.5 mm 0.00 in0.0 mm 0.13 in3.3 mm
03:17 AM 49.0°F9.4°C -5537.2°C - 5.2 mph ENE8.4 kmh ENE 8.1 mph13.0 kmh 30.00 in1015.9 mb 0.02 in0.5 mm 0.00 in0.0 mm 0.13 in3.3 mm
03:16 AM 49.0°F9.4°C -5537.2°C - 3.3 mph ENE5.3 kmh ENE 6.9 mph11.1 kmh 30.00 in1015.9 mb 0.02 in0.5 mm 0.00 in0.0 mm 0.13 in3.3 mm
03:15 AM 49.0°F9.4°C -5537.2°C - 3.2 mph ENE5.1 kmh ENE 7.6 mph12.2 kmh 30.00 in1015.9 mb 0.02 in0.5 mm 0.00 in0.0 mm 0.13 in3.3 mm
03:14 AM 49.0°F9.4°C -5537.2°C - 3.4 mph ENE5.5 kmh ENE 7.6 mph12.2 kmh 30.00 in1015.9 mb 0.02 in0.5 mm 0.00 in0.0 mm 0.13 in3.3 mm
03:13 AM 49.0°F9.4°C -5537.2°C - 2.8 mph E4.5 kmh E 7.8 mph12.6 kmh 30.00 in1015.9 mb 0.02 in0.5 mm 0.00 in0.0 mm 0.13 in3.3 mm
03:12 AM 49.0°F9.4°C -5537.2°C - 3.0 mph SE4.8 kmh SE 7.8 mph12.6 kmh 30.00 in1015.9 mb 0.02 in0.5 mm 0.00 in0.0 mm 0.13 in3.3 mm
03:11 AM 49.0°F9.4°C -5537.2°C - 4.4 mph SE7.1 kmh SE 7.8 mph12.6 kmh 29.99 in1015.6 mb 0.02 in0.5 mm 0.00 in0.0 mm 0.13 in3.3 mm
03:10 AM 49.0°F9.4°C -5537.2°C - 4.9 mph SE7.9 kmh SE 7.8 mph12.6 kmh 29.99 in1015.6 mb 0.02 in0.5 mm 0.00 in0.0 mm 0.13 in3.3 mm
03:09 AM 49.0°F9.4°C -5537.2°C - 5.3 mph SE8.5 kmh SE 10.3 mph16.6 kmh 29.99 in1015.6 mb 0.03 in0.8 mm 0.00 in0.0 mm 0.13 in3.3 mm
03:08 AM 49.0°F9.4°C -5537.2°C - 5.5 mph E8.9 kmh E 10.3 mph16.6 kmh 29.99 in1015.6 mb 0.03 in0.8 mm 0.00 in0.0 mm 0.13 in3.3 mm
03:07 AM 49.0°F9.4°C -5537.2°C - 6.0 mph ESE9.7 kmh ESE 10.7 mph17.2 kmh 29.98 in1015.2 mb 0.03 in0.8 mm 0.00 in0.0 mm 0.13 in3.3 mm
03:06 AM 49.0°F9.4°C -5537.2°C - 6.8 mph ESE10.9 kmh ESE 10.7 mph17.2 kmh 29.98 in1015.2 mb 0.03 in0.8 mm 0.00 in0.0 mm 0.13 in3.3 mm
03:05 AM 49.0°F9.4°C -5537.2°C - 6.5 mph ESE10.5 kmh ESE 10.7 mph17.2 kmh 29.98 in1015.2 mb 0.03 in0.8 mm 0.00 in0.0 mm 0.13 in3.3 mm
03:04 AM 49.0°F9.4°C -5537.2°C - 4.5 mph E7.2 kmh E 10.7 mph17.2 kmh 29.99 in1015.6 mb 0.03 in0.8 mm 0.00 in0.0 mm 0.13 in3.3 mm
03:03 AM 49.0°F9.4°C -5537.2°C - 2.4 mph NE3.9 kmh NE 10.7 mph17.2 kmh 29.99 in1015.6 mb 0.03 in0.8 mm 0.00 in0.0 mm 0.13 in3.3 mm
03:02 AM 49.0°F9.4°C -5537.2°C - 2.0 mph NE3.2 kmh NE 10.7 mph17.2 kmh 29.99 in1015.6 mb 0.03 in0.8 mm 0.00 in0.0 mm 0.13 in3.3 mm
03:01 AM 49.0°F9.4°C -5537.2°C - 4.7 mph ENE7.6 kmh ENE 10.7 mph17.2 kmh 29.98 in1015.2 mb 0.03 in0.8 mm 0.00 in0.0 mm 0.13 in3.3 mm
03:00 AM 49.0°F9.4°C -5537.2°C - 6.4 mph E10.3 kmh E 13.2 mph21.2 kmh 29.97 in1014.9 mb 0.03 in0.8 mm 0.00 in0.0 mm 0.13 in3.3 mm
02:59 AM 49.0°F9.4°C -5537.2°C - 7.4 mph ESE11.9 kmh ESE 13.2 mph21.2 kmh 29.97 in1014.9 mb 0.03 in0.8 mm 0.00 in0.0 mm 0.13 in3.3 mm
02:58 AM 49.0°F9.4°C -5537.2°C - 9.7 mph E15.6 kmh E 13.2 mph21.2 kmh 29.98 in1015.2 mb 0.03 in0.8 mm 0.00 in0.0 mm 0.13 in3.3 mm
02:57 AM 49.0°F9.4°C -5537.2°C - 9.1 mph E14.6 kmh E 13.2 mph21.2 kmh 29.98 in1015.2 mb 0.03 in0.8 mm 0.00 in0.0 mm 0.13 in3.3 mm
02:56 AM 49.0°F9.4°C -5537.2°C - 5.9 mph E9.5 kmh E 13.2 mph21.2 kmh 29.99 in1015.6 mb 0.03 in0.8 mm 0.00 in0.0 mm 0.13 in3.3 mm
02:55 AM 49.0°F9.4°C -5537.2°C - 4.6 mph E7.4 kmh E 13.2 mph21.2 kmh 29.99 in1015.6 mb 0.03 in0.8 mm 0.00 in0.0 mm 0.13 in3.3 mm
02:54 AM 49.0°F9.4°C -5537.2°C - 7.4 mph E11.9 kmh E 13.2 mph21.2 kmh 29.99 in1015.6 mb 0.03 in0.8 mm 0.00 in0.0 mm 0.13 in3.3 mm
02:53 AM 49.0°F9.4°C -5537.2°C - 9.9 mph E15.9 kmh E 13.2 mph21.2 kmh 29.99 in1015.6 mb 0.03 in0.8 mm 0.00 in0.0 mm 0.13 in3.3 mm
02:52 AM 49.0°F9.4°C -5537.2°C - 10.0 mph E16.1 kmh E 13.2 mph21.2 kmh 29.99 in1015.6 mb 0.03 in0.8 mm 0.00 in0.0 mm 0.13 in3.3 mm
02:51 AM 49.0°F9.4°C -5537.2°C - 8.0 mph E12.9 kmh E 13.2 mph21.2 kmh 29.98 in1015.2 mb 0.03 in0.8 mm 0.00 in0.0 mm 0.13 in3.3 mm
02:50 AM 49.0°F9.4°C -5537.2°C - 5.8 mph E9.3 kmh E 8.5 mph13.7 kmh 29.98 in1015.2 mb 0.04 in1.0 mm 0.00 in0.0 mm 0.13 in3.3 mm
02:49 AM 49.0°F9.4°C -5537.2°C - 5.9 mph E9.5 kmh E 8.5 mph13.7 kmh 29.98 in1015.2 mb 0.04 in1.0 mm 0.60 in15.2 mm 0.13 in3.3 mm
02:48 AM 49.0°F9.4°C -5537.2°C - 7.0 mph E11.3 kmh E 8.5 mph13.7 kmh 29.98 in1015.2 mb 0.03 in0.8 mm 0.00 in0.0 mm 0.12 in3.0 mm
02:47 AM 49.0°F9.4°C -5537.2°C - 6.1 mph E9.8 kmh E 8.5 mph13.7 kmh 29.98 in1015.2 mb 0.03 in0.8 mm 0.00 in0.0 mm 0.12 in3.0 mm
02:46 AM 49.0°F9.4°C -5537.2°C - 3.4 mph E5.5 kmh E 9.2 mph14.8 kmh 29.98 in1015.2 mb 0.03 in0.8 mm 0.00 in0.0 mm 0.12 in3.0 mm
02:45 AM 49.0°F9.4°C -5537.2°C - 3.4 mph NE5.5 kmh NE 9.2 mph14.8 kmh 29.98 in1015.2 mb 0.03 in0.8 mm 0.00 in0.0 mm 0.12 in3.0 mm
02:44 AM 49.0°F9.4°C -5537.2°C - 5.3 mph NE8.5 kmh NE 9.2 mph14.8 kmh 29.98 in1015.2 mb 0.03 in0.8 mm 0.00 in0.0 mm 0.12 in3.0 mm
02:43 AM 49.0°F9.4°C -5537.2°C - 5.7 mph ENE9.2 kmh ENE 9.2 mph14.8 kmh 29.98 in1015.2 mb 0.04 in1.0 mm 0.00 in0.0 mm 0.12 in3.0 mm
02:42 AM 49.0°F9.4°C -5537.2°C - 4.6 mph E7.4 kmh E 9.2 mph14.8 kmh 29.98 in1015.2 mb 0.04 in1.0 mm 0.00 in0.0 mm 0.12 in3.0 mm
02:41 AM 49.0°F9.4°C -5537.2°C - 4.4 mph ESE7.1 kmh ESE 9.2 mph14.8 kmh 29.98 in1015.2 mb 0.04 in1.0 mm 0.00 in0.0 mm 0.12 in3.0 mm
02:40 AM 49.0°F9.4°C -5537.2°C - 4.9 mph ESE7.9 kmh ESE 10.1 mph16.3 kmh 29.98 in1015.2 mb 0.04 in1.0 mm 0.00 in0.0 mm 0.12 in3.0 mm
02:39 AM 49.1°F9.5°C -5537.2°C - 4.5 mph E7.2 kmh E 10.1 mph16.3 kmh 29.98 in1015.2 mb 0.04 in1.0 mm 0.00 in0.0 mm 0.12 in3.0 mm
02:38 AM 49.1°F9.5°C -5537.2°C - 6.4 mph NE10.3 kmh NE 10.1 mph16.3 kmh 29.98 in1015.2 mb 0.04 in1.0 mm 0.00 in0.0 mm 0.12 in3.0 mm
02:37 AM 49.1°F9.5°C -5537.2°C - 7.8 mph NE12.6 kmh NE 10.5 mph16.9 kmh 29.97 in1014.9 mb 0.04 in1.0 mm 0.00 in0.0 mm 0.12 in3.0 mm
02:36 AM 49.1°F9.5°C -5537.2°C - 6.1 mph NE9.8 kmh NE 10.5 mph16.9 kmh 29.97 in1014.9 mb 0.04 in1.0 mm 0.00 in0.0 mm 0.12 in3.0 mm
02:35 AM 49.1°F9.5°C -5537.2°C - 5.3 mph NE8.5 kmh NE 10.5 mph16.9 kmh 29.98 in1015.2 mb 0.04 in1.0 mm 0.00 in0.0 mm 0.12 in3.0 mm
02:34 AM 49.1°F9.5°C -5537.2°C - 5.2 mph N8.4 kmh N 10.5 mph16.9 kmh 29.98 in1015.2 mb 0.04 in1.0 mm 0.00 in0.0 mm 0.12 in3.0 mm
02:33 AM 49.1°F9.5°C -5537.2°C - 4.5 mph NNE7.2 kmh NNE 10.5 mph16.9 kmh 29.98 in1015.2 mb 0.04 in1.0 mm 0.00 in0.0 mm 0.12 in3.0 mm
02:32 AM 49.1°F9.5°C -5537.2°C - 5.6 mph E9.0 kmh E 10.5 mph16.9 kmh 29.97 in1014.9 mb 0.05 in1.3 mm 0.00 in0.0 mm 0.12 in3.0 mm
02:31 AM 49.1°F9.5°C -5537.2°C - 7.9 mph E12.7 kmh E 10.5 mph16.9 kmh 29.97 in1014.9 mb 0.05 in1.3 mm 0.00 in0.0 mm 0.12 in3.0 mm
02:30 AM 49.1°F9.5°C -5537.2°C - 8.0 mph E12.9 kmh E 10.5 mph16.9 kmh 29.97 in1014.9 mb 0.05 in1.3 mm 0.00 in0.0 mm 0.12 in3.0 mm
02:29 AM 49.1°F9.5°C -5537.2°C - 7.4 mph E11.9 kmh E 10.5 mph16.9 kmh 29.97 in1014.9 mb 0.05 in1.3 mm 0.00 in0.0 mm 0.12 in3.0 mm
02:28 AM 49.1°F9.5°C -5537.2°C - 8.2 mph ESE13.2 kmh ESE 10.5 mph16.9 kmh 29.97 in1014.9 mb 0.05 in1.3 mm 0.00 in0.0 mm 0.12 in3.0 mm
02:27 AM 49.1°F9.5°C -5537.2°C - 8.5 mph SE13.7 kmh SE 10.5 mph16.9 kmh 29.97 in1014.9 mb 0.05 in1.3 mm 0.00 in0.0 mm 0.12 in3.0 mm
02:26 AM 49.1°F9.5°C -5537.2°C - 7.1 mph SE11.4 kmh SE 10.3 mph16.6 kmh 29.97 in1014.9 mb 0.05 in1.3 mm 0.60 in15.2 mm 0.12 in3.0 mm
02:25 AM 49.1°F9.5°C -5537.2°C - 5.6 mph SE9.0 kmh SE 10.3 mph16.6 kmh 29.98 in1015.2 mb 0.04 in1.0 mm 0.00 in0.0 mm 0.11 in2.8 mm
02:24 AM 49.1°F9.5°C -5537.2°C - 6.9 mph SE11.1 kmh SE 10.3 mph16.6 kmh 29.98 in1015.2 mb 0.04 in1.0 mm 0.00 in0.0 mm 0.11 in2.8 mm
02:23 AM 49.3°F9.6°C -5537.2°C - 9.2 mph SE14.8 kmh SE 10.3 mph16.6 kmh 29.99 in1015.6 mb 0.05 in1.3 mm 0.00 in0.0 mm 0.11 in2.8 mm
02:22 AM 49.3°F9.6°C -5537.2°C - 9.3 mph E15.0 kmh E 10.3 mph16.6 kmh 29.99 in1015.6 mb 0.05 in1.3 mm 0.00 in0.0 mm 0.11 in2.8 mm
02:21 AM 49.3°F9.6°C -5537.2°C - 7.9 mph E12.7 kmh E 9.2 mph14.8 kmh 30.00 in1015.9 mb 0.05 in1.3 mm 0.00 in0.0 mm 0.11 in2.8 mm
02:20 AM 49.3°F9.6°C -5537.2°C - 7.3 mph E11.7 kmh E 8.7 mph14.0 kmh 30.00 in1015.9 mb 0.05 in1.3 mm 0.00 in0.0 mm 0.11 in2.8 mm
02:19 AM 49.3°F9.6°C -5537.2°C - 7.5 mph ESE12.1 kmh ESE 8.7 mph14.0 kmh 30.00 in1015.9 mb 0.05 in1.3 mm 0.00 in0.0 mm 0.11 in2.8 mm
02:18 AM 49.3°F9.6°C -5537.2°C - 5.4 mph SE8.7 kmh SE 8.9 mph14.3 kmh 30.01 in1016.3 mb 0.05 in1.3 mm 0.00 in0.0 mm 0.11 in2.8 mm
02:17 AM 49.3°F9.6°C -5537.2°C - 3.9 mph E6.3 kmh E 8.9 mph14.3 kmh 30.01 in1016.3 mb 0.05 in1.3 mm 0.00 in0.0 mm 0.11 in2.8 mm
02:16 AM 49.3°F9.6°C -5537.2°C - 6.6 mph ENE10.6 kmh ENE 8.9 mph14.3 kmh 30.01 in1016.3 mb 0.05 in1.3 mm 0.00 in0.0 mm 0.11 in2.8 mm
02:15 AM 49.3°F9.6°C -5537.2°C - 7.8 mph ENE12.6 kmh ENE 8.9 mph14.3 kmh 30.01 in1016.3 mb 0.05 in1.3 mm 0.00 in0.0 mm 0.11 in2.8 mm
02:14 AM 49.5°F9.7°C -5537.2°C - 5.7 mph ENE9.2 kmh ENE 8.9 mph14.3 kmh 30.01 in1016.3 mb 0.05 in1.3 mm 0.00 in0.0 mm 0.11 in2.8 mm
02:13 AM 49.5°F9.7°C -5537.2°C - 4.5 mph E7.2 kmh E 8.9 mph14.3 kmh 30.01 in1016.3 mb 0.05 in1.3 mm 0.00 in0.0 mm 0.11 in2.8 mm
02:12 AM 49.5°F9.7°C -5537.2°C - 4.7 mph E7.6 kmh E 8.9 mph14.3 kmh 30.01 in1016.3 mb 0.05 in1.3 mm 0.00 in0.0 mm 0.11 in2.8 mm
02:11 AM 49.5°F9.7°C -5537.2°C - 5.2 mph E8.4 kmh E 9.2 mph14.8 kmh 30.01 in1016.3 mb 0.05 in1.3 mm 0.60 in15.2 mm 0.11 in2.8 mm
02:10 AM 49.5°F9.7°C -5537.2°C - 6.3 mph E10.1 kmh E 9.2 mph14.8 kmh 30.01 in1016.3 mb 0.04 in1.0 mm 0.00 in0.0 mm 0.10 in2.5 mm
02:09 AM 49.5°F9.7°C -5537.2°C - 7.3 mph E11.7 kmh E 9.2 mph14.8 kmh 30.01 in1016.3 mb 0.04 in1.0 mm 0.00 in0.0 mm 0.10 in2.5 mm
02:08 AM 49.5°F9.7°C -5537.2°C - 6.0 mph ESE9.7 kmh ESE 9.2 mph14.8 kmh 30.02 in1016.6 mb 0.04 in1.0 mm 0.00 in0.0 mm 0.10 in2.5 mm
02:07 AM 49.5°F9.7°C -5537.2°C - 4.1 mph ESE6.6 kmh ESE 9.2 mph14.8 kmh 30.02 in1016.6 mb 0.04 in1.0 mm 0.00 in0.0 mm 0.10 in2.5 mm
02:06 AM 49.7°F9.8°C -5537.2°C - 3.8 mph ESE6.1 kmh ESE 9.2 mph14.8 kmh 30.02 in1016.6 mb 0.04 in1.0 mm 0.00 in0.0 mm 0.10 in2.5 mm
02:05 AM 49.7°F9.8°C -5537.2°C - 3.9 mph ESE6.3 kmh ESE 9.2 mph14.8 kmh 30.02 in1016.6 mb 0.04 in1.0 mm 0.00 in0.0 mm 0.10 in2.5 mm
02:04 AM 49.7°F9.8°C -5537.2°C - 4.5 mph E7.2 kmh E 9.2 mph14.8 kmh 30.02 in1016.6 mb 0.04 in1.0 mm 0.00 in0.0 mm 0.10 in2.5 mm
02:03 AM 49.7°F9.8°C -5537.2°C - 5.9 mph E9.5 kmh E 9.2 mph14.8 kmh 30.02 in1016.6 mb 0.04 in1.0 mm 0.00 in0.0 mm 0.10 in2.5 mm
02:02 AM 49.7°F9.8°C -5537.2°C - 7.8 mph ENE12.6 kmh ENE 9.2 mph14.8 kmh 30.02 in1016.6 mb 0.04 in1.0 mm 0.00 in0.0 mm 0.10 in2.5 mm
02:01 AM 49.7°F9.8°C -5537.2°C - 8.9 mph ENE14.3 kmh ENE 9.2 mph14.8 kmh 30.02 in1016.6 mb 0.04 in1.0 mm 0.00 in0.0 mm 0.10 in2.5 mm
02:00 AM 49.7°F9.8°C -5537.2°C - 7.7 mph ENE12.4 kmh ENE 9.2 mph14.8 kmh 30.02 in1016.6 mb 0.04 in1.0 mm 0.00 in0.0 mm 0.10 in2.5 mm
01:59 AM 49.7°F9.8°C -5537.2°C - 6.3 mph ENE10.1 kmh ENE 8.5 mph13.7 kmh 30.02 in1016.6 mb 0.04 in1.0 mm 0.00 in0.0 mm 0.10 in2.5 mm
01:58 AM 49.9°F9.9°C -5537.2°C - 6.0 mph ENE9.7 kmh ENE 9.8 mph15.8 kmh 30.02 in1016.6 mb 0.04 in1.0 mm 0.00 in0.0 mm 0.10 in2.5 mm
01:57 AM 49.9°F9.9°C -5537.2°C - 5.4 mph E8.7 kmh E 9.8 mph15.8 kmh 30.02 in1016.6 mb 0.04 in1.0 mm 0.00 in0.0 mm 0.10 in2.5 mm
01:56 AM 49.9°F9.9°C -5537.2°C - 3.7 mph E6.0 kmh E 9.8 mph15.8 kmh 30.02 in1016.6 mb 0.04 in1.0 mm 0.00 in0.0 mm 0.10 in2.5 mm
01:55 AM 49.9°F9.9°C -5537.2°C - 3.0 mph E4.8 kmh E 9.8 mph15.8 kmh 30.02 in1016.6 mb 0.04 in1.0 mm 0.00 in0.0 mm 0.10 in2.5 mm
01:54 AM 49.9°F9.9°C -5537.2°C - 4.0 mph E6.4 kmh E 9.8 mph15.8 kmh 30.03 in1016.9 mb 0.04 in1.0 mm 0.00 in0.0 mm 0.10 in2.5 mm
01:53 AM 50.0°F10.0°C -5537.2°C - 5.2 mph E8.4 kmh E 9.8 mph15.8 kmh 30.03 in1016.9 mb 0.04 in1.0 mm 0.00 in0.0 mm 0.10 in2.5 mm
01:52 AM 50.0°F10.0°C -5537.2°C - 6.1 mph E9.8 kmh E 9.8 mph15.8 kmh 30.03 in1016.9 mb 0.04 in1.0 mm 0.00 in0.0 mm 0.10 in2.5 mm
01:51 AM 50.0°F10.0°C -5537.2°C - 6.1 mph E9.8 kmh E 9.8 mph15.8 kmh 30.03 in1016.9 mb 0.04 in1.0 mm 0.00 in0.0 mm 0.10 in2.5 mm
01:50 AM 50.0°F10.0°C -5537.2°C - 6.8 mph E10.9 kmh E 9.8 mph15.8 kmh 30.03 in1016.9 mb 0.04 in1.0 mm 0.00 in0.0 mm 0.09 in2.3 mm
01:49 AM 50.0°F10.0°C -5537.2°C - 6.4 mph E10.3 kmh E 9.8 mph15.8 kmh 30.03 in1016.9 mb 0.04 in1.0 mm 0.00 in0.0 mm 0.09 in2.3 mm
01:48 AM 50.0°F10.0°C -5537.2°C - 4.4 mph E7.1 kmh E 8.3 mph13.4 kmh 30.03 in1016.9 mb 0.04 in1.0 mm 0.00 in0.0 mm 0.09 in2.3 mm
01:47 AM 50.0°F10.0°C -5537.2°C - 5.1 mph ENE8.2 kmh ENE 8.3 mph13.4 kmh 30.03 in1016.9 mb 0.04 in1.0 mm 0.00 in0.0 mm 0.09 in2.3 mm
01:46 AM 50.0°F10.0°C -5537.2°C - 5.5 mph NE8.9 kmh NE 8.3 mph13.4 kmh 30.03 in1016.9 mb 0.04 in1.0 mm 0.00 in0.0 mm 0.09 in2.3 mm
01:45 AM 50.2°F10.1°C -5537.2°C - 5.6 mph ENE9.0 kmh ENE 8.1 mph13.0 kmh 30.03 in1016.9 mb 0.04 in1.0 mm 0.00 in0.0 mm 0.09 in2.3 mm
01:44 AM 50.2°F10.1°C -5537.2°C - 6.6 mph E10.6 kmh E 8.1 mph13.0 kmh 30.03 in1016.9 mb 0.04 in1.0 mm 0.60 in15.2 mm 0.09 in2.3 mm
01:43 AM 50.2°F10.1°C -5537.2°C - 5.4 mph E8.7 kmh E 8.1 mph13.0 kmh 30.03 in1016.9 mb 0.03 in0.8 mm 0.00 in0.0 mm 0.08 in2.0 mm
01:42 AM 50.2°F10.1°C -5537.2°C - 4.1 mph ENE6.6 kmh ENE 6.5 mph10.5 kmh 30.03 in1016.9 mb 0.03 in0.8 mm 0.00 in0.0 mm 0.08 in2.0 mm
01:41 AM 50.2°F10.1°C -5537.2°C - 3.4 mph NE5.5 kmh NE 6.5 mph10.5 kmh 30.03 in1016.9 mb 0.03 in0.8 mm 0.00 in0.0 mm 0.08 in2.0 mm
01:40 AM 50.4°F10.2°C -5537.2°C - 3.8 mph NE6.1 kmh NE 6.5 mph10.5 kmh 30.03 in1016.9 mb 0.03 in0.8 mm 0.00 in0.0 mm 0.08 in2.0 mm
01:39 AM 50.4°F10.2°C -5537.2°C - 4.6 mph NE7.4 kmh NE 6.5 mph10.5 kmh 30.03 in1016.9 mb 0.03 in0.8 mm 0.00 in0.0 mm 0.08 in2.0 mm
01:38 AM 50.4°F10.2°C -5537.2°C - 4.8 mph ENE7.7 kmh ENE 6.5 mph10.5 kmh 30.03 in1016.9 mb 0.03 in0.8 mm 0.00 in0.0 mm 0.08 in2.0 mm
01:37 AM 50.4°F10.2°C -5537.2°C - 5.6 mph E9.0 kmh E 6.5 mph10.5 kmh 30.03 in1016.9 mb 0.04 in1.0 mm 0.00 in0.0 mm 0.08 in2.0 mm
01:36 AM 50.4°F10.2°C -5537.2°C - 5.4 mph E8.7 kmh E 6.5 mph10.5 kmh 30.03 in1016.9 mb 0.04 in1.0 mm 0.00 in0.0 mm 0.08 in2.0 mm
01:35 AM 50.6°F10.3°C -5537.2°C - 5.3 mph ENE8.5 kmh ENE 6.5 mph10.5 kmh 30.03 in1016.9 mb 0.04 in1.0 mm 0.00 in0.0 mm 0.08 in2.0 mm
01:34 AM 50.6°F10.3°C -5537.2°C - 5.6 mph E9.0 kmh E 6.5 mph10.5 kmh 30.03 in1016.9 mb 0.04 in1.0 mm 0.00 in0.0 mm 0.08 in2.0 mm
01:33 AM 50.6°F10.3°C -5537.2°C - 4.4 mph E7.1 kmh E 6.7 mph10.8 kmh 30.03 in1016.9 mb 0.04 in1.0 mm 0.60 in15.2 mm 0.08 in2.0 mm
01:32 AM 50.6°F10.3°C -5537.2°C - 3.1 mph E5.0 kmh E 6.7 mph10.8 kmh 30.03 in1016.9 mb 0.03 in0.8 mm 0.00 in0.0 mm 0.07 in1.8 mm
01:31 AM 50.8°F10.4°C -5537.2°C - 2.6 mph ENE4.2 kmh ENE 6.7 mph10.8 kmh 30.03 in1016.9 mb 0.03 in0.8 mm 0.00 in0.0 mm 0.07 in1.8 mm
01:30 AM 50.8°F10.4°C -5537.2°C - 2.5 mph ENE4.0 kmh ENE 6.7 mph10.8 kmh 30.03 in1016.9 mb 0.03 in0.8 mm 0.00 in0.0 mm 0.07 in1.8 mm
01:29 AM 50.8°F10.4°C -5537.2°C - 2.8 mph ENE4.5 kmh ENE 6.7 mph10.8 kmh 30.03 in1016.9 mb 0.03 in0.8 mm 0.00 in0.0 mm 0.07 in1.8 mm
01:28 AM 50.8°F10.4°C -5537.2°C - 3.8 mph ENE6.1 kmh ENE 6.7 mph10.8 kmh 30.03 in1016.9 mb 0.03 in0.8 mm 0.00 in0.0 mm 0.07 in1.8 mm
01:27 AM 50.8°F10.4°C -5537.2°C - 4.7 mph NE7.6 kmh NE 6.7 mph10.8 kmh 30.03 in1016.9 mb 0.03 in0.8 mm 0.00 in0.0 mm 0.07 in1.8 mm
01:26 AM 50.8°F10.4°C -5537.2°C - 4.7 mph NE7.6 kmh NE 6.7 mph10.8 kmh 30.03 in1016.9 mb 0.03 in0.8 mm 0.00 in0.0 mm 0.07 in1.8 mm
01:25 AM 50.8°F10.4°C -5537.2°C - 5.1 mph E8.2 kmh E 6.7 mph10.8 kmh 30.03 in1016.9 mb 0.03 in0.8 mm 0.00 in0.0 mm 0.07 in1.8 mm
01:24 AM 50.9°F10.5°C -5537.2°C - 6.2 mph E10.0 kmh E 6.7 mph10.8 kmh 30.02 in1016.6 mb 0.03 in0.8 mm 0.60 in15.2 mm 0.07 in1.8 mm
01:23 AM 51.1°F10.6°C -5537.2°C - 6.7 mph ENE10.8 kmh ENE 6.7 mph10.8 kmh 30.02 in1016.6 mb 0.02 in0.5 mm 0.00 in0.0 mm 0.06 in1.5 mm
01:22 AM 51.1°F10.6°C -5537.2°C - 6.7 mph ENE10.8 kmh ENE 6.7 mph10.8 kmh 30.02 in1016.6 mb 0.03 in0.8 mm 0.00 in0.0 mm 0.06 in1.5 mm
01:21 AM 51.1°F10.6°C -5537.2°C - 5.5 mph E8.9 kmh E 6.9 mph11.1 kmh 30.02 in1016.6 mb 0.03 in0.8 mm 0.00 in0.0 mm 0.06 in1.5 mm
01:20 AM 51.1°F10.6°C -5537.2°C - 4.5 mph E7.2 kmh E 6.9 mph11.1 kmh 30.02 in1016.6 mb 0.03 in0.8 mm 0.00 in0.0 mm 0.06 in1.5 mm
01:19 AM 51.1°F10.6°C -5537.2°C - 4.5 mph ENE7.2 kmh ENE 6.9 mph11.1 kmh 30.02 in1016.6 mb 0.03 in0.8 mm 0.00 in0.0 mm 0.06 in1.5 mm
01:18 AM 51.3°F10.7°C -5537.2°C - 4.8 mph ENE7.7 kmh ENE 9.2 mph14.8 kmh 30.02 in1016.6 mb 0.03 in0.8 mm 0.00 in0.0 mm 0.06 in1.5 mm
01:17 AM 51.3°F10.7°C -5537.2°C - 5.2 mph NE8.4 kmh NE 9.2 mph14.8 kmh 30.02 in1016.6 mb 0.04 in1.0 mm 0.00 in0.0 mm 0.06 in1.5 mm
01:16 AM 51.3°F10.7°C -5537.2°C - 3.9 mph ENE6.3 kmh ENE 9.2 mph14.8 kmh 30.02 in1016.6 mb 0.04 in1.0 mm 0.00 in0.0 mm 0.06 in1.5 mm
01:15 AM 51.5°F10.8°C -5537.2°C - 3.3 mph E5.3 kmh E 9.2 mph14.8 kmh 30.02 in1016.6 mb 0.04 in1.0 mm 0.00 in0.0 mm 0.06 in1.5 mm
01:14 AM 51.5°F10.8°C -5537.2°C - 4.0 mph E6.4 kmh E 9.2 mph14.8 kmh 30.02 in1016.6 mb 0.04 in1.0 mm 0.00 in0.0 mm 0.06 in1.5 mm
01:13 AM 51.5°F10.8°C -5537.2°C - 4.3 mph ESE6.9 kmh ESE 9.2 mph14.8 kmh 30.02 in1016.6 mb 0.04 in1.0 mm 0.00 in0.0 mm 0.06 in1.5 mm
01:12 AM 51.5°F10.8°C -5537.2°C - 5.5 mph SE8.9 kmh SE 9.2 mph14.8 kmh 30.02 in1016.6 mb 0.05 in1.3 mm 0.00 in0.0 mm 0.06 in1.5 mm
01:11 AM 51.7°F10.9°C -5537.2°C - 6.3 mph ESE10.1 kmh ESE 9.2 mph14.8 kmh 30.02 in1016.6 mb 0.05 in1.3 mm 0.00 in0.0 mm 0.06 in1.5 mm
01:10 AM 51.7°F10.9°C -5537.2°C - 6.2 mph E10.0 kmh E 9.2 mph14.8 kmh 30.02 in1016.6 mb 0.05 in1.3 mm 0.00 in0.0 mm 0.06 in1.5 mm
01:09 AM 51.8°F11.0°C -5537.2°C - 4.4 mph E7.1 kmh E 9.8 mph15.8 kmh 30.02 in1016.6 mb 0.05 in1.3 mm 0.00 in0.0 mm 0.06 in1.5 mm
01:08 AM 51.8°F11.0°C -5537.2°C - 2.3 mph E3.7 kmh E 9.8 mph15.8 kmh 30.02 in1016.6 mb 0.05 in1.3 mm 0.00 in0.0 mm 0.06 in1.5 mm
01:07 AM 51.8°F11.0°C -5537.2°C - 3.1 mph E5.0 kmh E 9.8 mph15.8 kmh 30.02 in1016.6 mb 0.05 in1.3 mm 0.00 in0.0 mm 0.06 in1.5 mm
01:06 AM 51.8°F11.0°C -5537.2°C - 5.0 mph E8.0 kmh E 9.8 mph15.8 kmh 30.02 in1016.6 mb 0.06 in1.5 mm 0.00 in0.0 mm 0.06 in1.5 mm
01:05 AM 51.8°F11.0°C -5537.2°C - 7.0 mph E11.3 kmh E 9.8 mph15.8 kmh 30.01 in1016.3 mb 0.06 in1.5 mm 0.00 in0.0 mm 0.06 in1.5 mm
01:04 AM 51.8°F11.0°C -5537.2°C - 8.4 mph E13.5 kmh E 9.8 mph15.8 kmh 30.01 in1016.3 mb 0.06 in1.5 mm 0.00 in0.0 mm 0.06 in1.5 mm
01:03 AM 52.0°F11.1°C -5537.2°C - 7.7 mph E12.4 kmh E 9.8 mph15.8 kmh 30.01 in1016.3 mb 0.06 in1.5 mm 0.00 in0.0 mm 0.06 in1.5 mm
01:02 AM 52.0°F11.1°C -5537.2°C - 7.3 mph ESE11.7 kmh ESE 9.8 mph15.8 kmh 30.01 in1016.3 mb 0.06 in1.5 mm 0.00 in0.0 mm 0.06 in1.5 mm
01:01 AM 52.0°F11.1°C -5537.2°C - 6.5 mph SE10.5 kmh SE 9.8 mph15.8 kmh 30.01 in1016.3 mb 0.06 in1.5 mm 0.00 in0.0 mm 0.06 in1.5 mm
01:00 AM 52.2°F11.2°C -5537.2°C - 5.1 mph SE8.2 kmh SE 9.8 mph15.8 kmh 30.01 in1016.3 mb 0.06 in1.5 mm 0.00 in0.0 mm 0.06 in1.5 mm
12:59 AM 52.2°F11.2°C -5537.2°C - 4.5 mph SE7.2 kmh SE 9.8 mph15.8 kmh 30.00 in1015.9 mb 0.06 in1.5 mm 0.00 in0.0 mm 0.06 in1.5 mm
12:58 AM 52.2°F11.2°C -5537.2°C - 4.5 mph SE7.2 kmh SE 9.8 mph15.8 kmh 30.00 in1015.9 mb 0.06 in1.5 mm 0.00 in0.0 mm 0.06 in1.5 mm
12:57 AM 52.2°F11.2°C -5537.2°C - 4.6 mph ESE7.4 kmh ESE 9.8 mph15.8 kmh 30.00 in1015.9 mb 0.06 in1.5 mm 0.00 in0.0 mm 0.06 in1.5 mm
12:56 AM 52.2°F11.2°C -5537.2°C - 4.7 mph E7.6 kmh E 9.8 mph15.8 kmh 30.00 in1015.9 mb 0.07 in1.8 mm 0.00 in0.0 mm 0.06 in1.5 mm
12:55 AM 52.2°F11.2°C -5537.2°C - 4.6 mph E7.4 kmh E 9.8 mph15.8 kmh 30.00 in1015.9 mb 0.07 in1.8 mm 0.00 in0.0 mm 0.06 in1.5 mm
12:54 AM 52.2°F11.2°C -5537.2°C - 5.7 mph ESE9.2 kmh ESE 9.8 mph15.8 kmh 30.00 in1015.9 mb 0.07 in1.8 mm 0.00 in0.0 mm 0.06 in1.5 mm
12:53 AM 52.2°F11.2°C -5537.2°C - 7.0 mph ESE11.3 kmh ESE 9.8 mph15.8 kmh 30.00 in1015.9 mb 0.08 in2.0 mm 0.00 in0.0 mm 0.06 in1.5 mm
12:52 AM 52.2°F11.2°C -5537.2°C - 7.6 mph ESE12.2 kmh ESE 9.8 mph15.8 kmh 30.00 in1015.9 mb 0.08 in2.0 mm 0.60 in15.2 mm 0.06 in1.5 mm
12:51 AM 52.2°F11.2°C -5537.2°C - 8.8 mph ESE14.2 kmh ESE 9.8 mph15.8 kmh 30.00 in1015.9 mb 0.07 in1.8 mm 0.00 in0.0 mm 0.05 in1.3 mm
12:50 AM 52.6°F11.4°C -5537.2°C - 9.8 mph SE15.8 kmh SE 9.8 mph15.8 kmh 30.00 in1015.9 mb 0.07 in1.8 mm 0.00 in0.0 mm 0.05 in1.3 mm
12:49 AM 52.6°F11.4°C -5537.2°C - 9.8 mph SE15.8 kmh SE 9.8 mph15.8 kmh 30.00 in1015.9 mb 0.07 in1.8 mm 0.00 in0.0 mm 0.05 in1.3 mm
12:48 AM 52.6°F11.4°C -5537.2°C - 8.8 mph SE14.2 kmh SE 9.8 mph15.8 kmh 30.00 in1015.9 mb 0.07 in1.8 mm 0.00 in0.0 mm 0.05 in1.3 mm
12:47 AM 52.6°F11.4°C -5537.2°C - 6.8 mph ESE10.9 kmh ESE 9.2 mph14.8 kmh 30.00 in1015.9 mb 0.07 in1.8 mm 0.00 in0.0 mm 0.05 in1.3 mm
12:46 AM 52.6°F11.4°C -5537.2°C - 5.8 mph ESE9.3 kmh ESE 7.8 mph12.6 kmh 30.00 in1015.9 mb 0.07 in1.8 mm 0.00 in0.0 mm 0.05 in1.3 mm
12:45 AM 52.6°F11.4°C -5537.2°C - 5.6 mph SE9.0 kmh SE 7.8 mph12.6 kmh 30.00 in1015.9 mb 0.07 in1.8 mm 0.00 in0.0 mm 0.05 in1.3 mm
12:44 AM 52.6°F11.4°C -5537.2°C - 5.5 mph SE8.9 kmh SE 7.8 mph12.6 kmh 30.00 in1015.9 mb 0.07 in1.8 mm 0.00 in0.0 mm 0.05 in1.3 mm
12:43 AM 52.6°F11.4°C -5537.2°C - 5.0 mph SE8.0 kmh SE 7.8 mph12.6 kmh 30.00 in1015.9 mb 0.07 in1.8 mm 0.00 in0.0 mm 0.05 in1.3 mm
12:42 AM 52.7°F11.5°C -5537.2°C - 4.3 mph SE6.9 kmh SE 6.9 mph11.1 kmh 30.00 in1015.9 mb 0.07 in1.8 mm 0.00 in0.0 mm 0.05 in1.3 mm
12:41 AM 52.7°F11.5°C -5537.2°C - 4.3 mph SE6.9 kmh SE 6.9 mph11.1 kmh 30.00 in1015.9 mb 0.07 in1.8 mm 0.00 in0.0 mm 0.05 in1.3 mm
12:40 AM 52.7°F11.5°C -5537.2°C - 4.4 mph ESE7.1 kmh ESE 6.9 mph11.1 kmh 30.00 in1015.9 mb 0.07 in1.8 mm 0.00 in0.0 mm 0.05 in1.3 mm
12:39 AM 52.7°F11.5°C -5537.2°C - 4.3 mph E6.9 kmh E 6.9 mph11.1 kmh 30.01 in1016.3 mb 0.07 in1.8 mm 0.00 in0.0 mm 0.05 in1.3 mm
12:38 AM 52.7°F11.5°C -5537.2°C - 5.4 mph E8.7 kmh E 6.9 mph11.1 kmh 30.01 in1016.3 mb 0.07 in1.8 mm 0.60 in15.2 mm 0.05 in1.3 mm
12:37 AM 52.9°F11.6°C -5537.2°C - 6.7 mph E10.8 kmh E 6.9 mph11.1 kmh 30.01 in1016.3 mb 0.06 in1.5 mm 0.00 in0.0 mm 0.04 in1.0 mm
12:36 AM 52.9°F11.6°C -5537.2°C - 6.7 mph E10.8 kmh E 6.9 mph11.1 kmh 30.01 in1016.3 mb 0.06 in1.5 mm 0.00 in0.0 mm 0.04 in1.0 mm
12:35 AM 52.9°F11.6°C -5537.2°C - 6.7 mph E10.8 kmh E 6.9 mph11.1 kmh 30.01 in1016.3 mb 0.06 in1.5 mm 0.00 in0.0 mm 0.04 in1.0 mm
12:34 AM 52.9°F11.6°C -5537.2°C - 5.7 mph E9.2 kmh E 6.9 mph11.1 kmh 30.01 in1016.3 mb 0.06 in1.5 mm 0.00 in0.0 mm 0.04 in1.0 mm
12:33 AM 52.9°F11.6°C -5537.2°C - 4.1 mph E6.6 kmh E 6.9 mph11.1 kmh 30.02 in1016.6 mb 0.06 in1.5 mm 0.00 in0.0 mm 0.04 in1.0 mm
12:32 AM 52.9°F11.6°C -5537.2°C - 3.6 mph E5.8 kmh E 4.7 mph7.6 kmh 30.02 in1016.6 mb 0.07 in1.8 mm 0.00 in0.0 mm 0.04 in1.0 mm
12:31 AM 52.9°F11.6°C -5537.2°C - 3.6 mph E5.8 kmh E 4.7 mph7.6 kmh 30.01 in1016.3 mb 0.07 in1.8 mm 0.00 in0.0 mm 0.04 in1.0 mm
12:30 AM 52.9°F11.6°C -5537.2°C - 3.7 mph E6.0 kmh E 4.7 mph7.6 kmh 30.02 in1016.6 mb 0.07 in1.8 mm 0.00 in0.0 mm 0.04 in1.0 mm
12:29 AM 52.9°F11.6°C -5537.2°C - 3.5 mph E5.6 kmh E 4.7 mph7.6 kmh 30.02 in1016.6 mb 0.07 in1.8 mm 0.00 in0.0 mm 0.04 in1.0 mm
12:28 AM 52.9°F11.6°C -5537.2°C - 1.9 mph E3.1 kmh E 6.7 mph10.8 kmh 30.01 in1016.3 mb 0.07 in1.8 mm 0.00 in0.0 mm 0.04 in1.0 mm
12:27 AM 52.7°F11.5°C -5537.2°C - 0.4 mph ENE0.6 kmh ENE 6.7 mph10.8 kmh 30.02 in1016.6 mb 0.07 in1.8 mm 0.00 in0.0 mm 0.04 in1.0 mm
12:26 AM 52.7°F11.5°C -5537.2°C - 0.4 mph ENE0.6 kmh ENE 6.7 mph10.8 kmh 30.02 in1016.6 mb 0.08 in2.0 mm 0.00 in0.0 mm 0.04 in1.0 mm
12:25 AM 52.7°F11.5°C -5537.2°C - 0.6 mph ENE1.0 kmh ENE 6.7 mph10.8 kmh 30.02 in1016.6 mb 0.08 in2.0 mm 0.00 in0.0 mm 0.04 in1.0 mm
12:24 AM 52.7°F11.5°C -5537.2°C - 1.7 mph E2.7 kmh E 6.7 mph10.8 kmh 30.02 in1016.6 mb 0.08 in2.0 mm 0.00 in0.0 mm 0.04 in1.0 mm
12:23 AM 52.7°F11.5°C -5537.2°C - 2.4 mph E3.9 kmh E 6.7 mph10.8 kmh 30.01 in1016.3 mb 0.08 in2.0 mm 0.60 in15.2 mm 0.04 in1.0 mm
12:22 AM 52.9°F11.6°C -5537.2°C - 1.9 mph ESE3.1 kmh ESE 6.7 mph10.8 kmh 30.02 in1016.6 mb 0.07 in1.8 mm 0.00 in0.0 mm 0.03 in0.8 mm
12:21 AM 52.9°F11.6°C -5537.2°C - 1.8 mph ESE2.9 kmh ESE 6.7 mph10.8 kmh 30.02 in1016.6 mb 0.07 in1.8 mm 0.00 in0.0 mm 0.03 in0.8 mm
12:20 AM 52.9°F11.6°C -5537.2°C - 3.3 mph E5.3 kmh E 6.7 mph10.8 kmh 30.01 in1016.3 mb 0.07 in1.8 mm 0.00 in0.0 mm 0.03 in0.8 mm
12:19 AM 52.9°F11.6°C -5537.2°C - 5.9 mph NE9.5 kmh NE 6.7 mph10.8 kmh 30.01 in1016.3 mb 0.07 in1.8 mm 0.00 in0.0 mm 0.03 in0.8 mm
12:18 AM 52.9°F11.6°C -5537.2°C - 5.9 mph NE9.5 kmh NE 6.7 mph10.8 kmh 30.01 in1016.3 mb 0.07 in1.8 mm 0.00 in0.0 mm 0.03 in0.8 mm
12:17 AM 52.9°F11.6°C -5537.2°C - 4.2 mph NE6.8 kmh NE 6.7 mph10.8 kmh 30.01 in1016.3 mb 0.07 in1.8 mm 0.00 in0.0 mm 0.02 in0.5 mm
12:16 AM 52.9°F11.6°C -5537.2°C - 4.3 mph ENE6.9 kmh ENE 6.3 mph10.1 kmh 30.01 in1016.3 mb 0.07 in1.8 mm 0.00 in0.0 mm 0.02 in0.5 mm
12:15 AM 52.9°F11.6°C -5537.2°C - 4.6 mph NE7.4 kmh NE 6.3 mph10.1 kmh 30.01 in1016.3 mb 0.07 in1.8 mm 0.00 in0.0 mm 0.02 in0.5 mm
12:14 AM 52.9°F11.6°C -5537.2°C - 3.6 mph NE5.8 kmh NE 6.3 mph10.1 kmh 30.01 in1016.3 mb 0.08 in2.0 mm 0.00 in0.0 mm 0.02 in0.5 mm
12:13 AM 52.9°F11.6°C -5537.2°C - 3.5 mph E5.6 kmh E 3.6 mph5.8 kmh 30.00 in1015.9 mb 0.08 in2.0 mm 0.60 in15.2 mm 0.02 in0.5 mm
12:12 AM 52.9°F11.6°C -5537.2°C - 3.4 mph SE5.5 kmh SE 3.6 mph5.8 kmh 30.00 in1015.9 mb 0.07 in1.8 mm 0.00 in0.0 mm 0.01 in0.3 mm
12:11 AM 52.9°F11.6°C -5537.2°C - 3.4 mph SE5.5 kmh SE 3.4 mph5.5 kmh 30.01 in1016.3 mb 0.07 in1.8 mm 0.00 in0.0 mm 0.01 in0.3 mm
12:10 AM 52.9°F11.6°C -5537.2°C - 3.3 mph SE5.3 kmh SE 3.4 mph5.5 kmh 30.01 in1016.3 mb 0.07 in1.8 mm 0.00 in0.0 mm 0.01 in0.3 mm
12:09 AM 52.9°F11.6°C -5537.2°C - 2.2 mph SE3.5 kmh SE 3.4 mph5.5 kmh 30.01 in1016.3 mb 0.07 in1.8 mm 0.00 in0.0 mm 0.01 in0.3 mm
12:08 AM 52.9°F11.6°C -5537.2°C - 1.3 mph ENE2.1 kmh ENE 3.6 mph5.8 kmh 30.01 in1016.3 mb 0.08 in2.0 mm 0.00 in0.0 mm 0.01 in0.3 mm
12:07 AM 52.9°F11.6°C -5537.2°C - 1.7 mph ENE2.7 kmh ENE 4.7 mph7.6 kmh 30.01 in1016.3 mb 0.08 in2.0 mm 0.60 in15.2 mm 0.01 in0.3 mm
12:06 AM 52.9°F11.6°C -5537.2°C - 1.8 mph E2.9 kmh E 4.7 mph7.6 kmh 30.01 in1016.3 mb 0.07 in1.8 mm 0.00 in0.0 mm 0.10 in2.5 mm
12:05 AM 52.9°F11.6°C -5537.2°C - 1.8 mph E2.9 kmh E 4.7 mph7.6 kmh 30.01 in1016.3 mb 0.08 in2.0 mm 0.00 in0.0 mm 0.10 in2.5 mm
12:04 AM 52.9°F11.6°C -5537.2°C - 1.9 mph E3.1 kmh E 4.7 mph7.6 kmh 30.01 in1016.3 mb 0.08 in2.0 mm 0.00 in0.0 mm 0.10 in2.5 mm
12:03 AM 52.9°F11.6°C -5537.2°C - 2.2 mph E3.5 kmh E 4.7 mph7.6 kmh 30.01 in1016.3 mb 0.08 in2.0 mm 0.00 in0.0 mm 0.10 in2.5 mm
12:02 AM 52.9°F11.6°C -5537.2°C - 2.5 mph E4.0 kmh E 4.7 mph7.6 kmh 30.01 in1016.3 mb 0.08 in2.0 mm 0.00 in0.0 mm 0.10 in2.5 mm
12:01 AM 52.9°F11.6°C -5537.2°C - 2.5 mph ESE4.0 kmh ESE 4.7 mph7.6 kmh 30.01 in1016.3 mb 0.08 in2.0 mm 0.00 in0.0 mm 0.10 in2.5 mm
12:00 AM 52.9°F11.6°C -5537.2°C - 2.9 mph ESE4.7 kmh ESE 4.7 mph7.6 kmh 30.01 in1016.3 mb 0.10 in2.5 mm 0.00 in0.0 mm 0.10 in2.5 mm